createdAt,value
2022-09-12T00:00:52.317Z,0
2022-09-12T00:01:52.313Z,0
2022-09-12T00:02:52.319Z,0
2022-09-12T00:03:52.309Z,0
2022-09-12T00:04:52.287Z,0
2022-09-12T00:05:52.280Z,0
2022-09-12T00:06:52.255Z,0
2022-09-12T00:07:52.248Z,0
2022-09-12T00:08:52.230Z,0
2022-09-12T00:09:52.229Z,0
2022-09-12T00:10:52.229Z,0
2022-09-12T00:11:52.196Z,0
2022-09-12T00:12:52.191Z,0
2022-09-12T00:13:52.173Z,0
2022-09-12T00:14:52.197Z,0
2022-09-12T00:15:52.166Z,0
2022-09-12T00:16:52.150Z,0
2022-09-12T00:17:52.131Z,0
2022-09-12T00:18:52.123Z,0
2022-09-12T00:19:52.116Z,0
2022-09-12T00:20:52.117Z,0
2022-09-12T00:21:52.100Z,0
2022-09-12T00:22:52.101Z,0
2022-09-12T00:23:52.069Z,0
2022-09-12T00:24:52.059Z,0
2022-09-12T00:25:52.047Z,0
2022-09-12T00:26:52.046Z,0
2022-09-12T00:27:52.023Z,0
2022-09-12T00:28:52.021Z,0
2022-09-12T00:29:52.007Z,0
2022-09-12T00:30:51.992Z,0
2022-09-12T00:31:51.981Z,0
2022-09-12T00:32:51.975Z,0
2022-09-12T00:33:51.953Z,0
2022-09-12T00:34:51.952Z,0
2022-09-12T00:35:51.943Z,0
2022-09-12T00:36:51.923Z,0
2022-09-12T00:37:51.921Z,0
2022-09-12T00:38:51.913Z,0
2022-09-12T00:39:51.895Z,0
2022-09-12T00:40:51.890Z,0
2022-09-12T00:41:51.876Z,0
2022-09-12T00:42:51.864Z,0
2022-09-12T00:43:51.882Z,0
2022-09-12T00:44:51.846Z,0
2022-09-12T00:45:51.833Z,0
2022-09-12T00:46:51.833Z,0
2022-09-12T00:47:51.815Z,0
2022-09-12T00:48:51.805Z,0
2022-09-12T00:49:51.805Z,0
2022-09-12T00:50:51.800Z,0
2022-09-12T00:51:51.789Z,0
2022-09-12T00:52:51.762Z,0
2022-09-12T00:53:51.753Z,0
2022-09-12T00:54:51.743Z,0
2022-09-12T00:55:51.732Z,0
2022-09-12T00:56:51.726Z,0
2022-09-12T00:57:51.706Z,0
2022-09-12T00:58:51.709Z,0
2022-09-12T00:59:51.693Z,0
2022-09-12T01:00:51.678Z,0
2022-09-12T01:01:51.670Z,0
2022-09-12T01:02:51.678Z,0
2022-09-12T01:03:51.648Z,0
2022-09-12T01:04:51.631Z,0
2022-09-12T01:05:51.634Z,0
2022-09-12T01:06:51.634Z,0
2022-09-12T01:07:51.627Z,0
2022-09-12T01:08:51.612Z,0
2022-09-12T01:09:51.582Z,0
2022-09-12T01:10:51.579Z,0
2022-09-12T01:11:51.564Z,0
2022-09-12T01:12:51.550Z,0
2022-09-12T01:13:51.546Z,0
2022-09-12T01:14:51.555Z,0
2022-09-12T01:15:51.521Z,0
2022-09-12T01:16:51.513Z,0
2022-09-12T01:17:51.502Z,0
2022-09-12T01:18:51.493Z,0
2022-09-12T01:19:51.484Z,0
2022-09-12T01:20:51.484Z,0
2022-09-12T01:21:51.462Z,0
2022-09-12T01:22:51.448Z,0
2022-09-12T01:23:51.438Z,0
2022-09-12T01:24:51.430Z,0
2022-09-12T01:25:51.423Z,0
2022-09-12T01:26:51.438Z,0
2022-09-12T01:27:51.400Z,0
2022-09-12T01:28:51.389Z,0
2022-09-12T01:29:51.376Z,0
2022-09-12T01:30:51.368Z,0
2022-09-12T01:31:51.357Z,0
2022-09-12T01:32:51.360Z,0
2022-09-12T01:33:51.348Z,0
2022-09-12T01:34:51.336Z,0
2022-09-12T01:35:51.320Z,0
2022-09-12T01:36:51.308Z,0
2022-09-12T01:37:51.300Z,0
2022-09-12T01:38:51.320Z,0
2022-09-12T01:39:51.306Z,0
2022-09-12T01:40:51.269Z,0
2022-09-12T01:41:51.257Z,0
2022-09-12T01:42:51.245Z,0
2022-09-12T01:43:51.243Z,0
2022-09-12T01:44:51.263Z,0
2022-09-12T01:45:51.220Z,0
2022-09-12T01:46:51.201Z,0
2022-09-12T01:47:51.203Z,0
2022-09-12T01:48:51.179Z,0
2022-09-12T01:49:51.176Z,0
2022-09-12T01:50:51.174Z,0
2022-09-12T01:51:51.150Z,0
2022-09-12T01:52:51.144Z,0
2022-09-12T01:53:51.128Z,0
2022-09-12T01:54:51.123Z,0
2022-09-12T01:55:51.125Z,0
2022-09-12T01:56:51.103Z,0
2022-09-12T01:57:51.091Z,0
2022-09-12T01:58:51.082Z,0
2022-09-12T01:59:51.070Z,0
2022-09-12T02:00:51.056Z,0
2022-09-12T02:01:51.064Z,0
2022-09-12T02:02:51.063Z,0
2022-09-12T02:03:51.028Z,0
2022-09-12T02:04:51.027Z,0
2022-09-12T02:05:51.010Z,0
2022-09-12T02:06:50.993Z,0
2022-09-12T02:07:50.986Z,0
2022-09-12T02:08:50.977Z,0
2022-09-12T02:09:50.981Z,0
2022-09-12T02:10:50.955Z,0
2022-09-12T02:11:50.949Z,0
2022-09-12T02:12:50.949Z,0
2022-09-12T02:13:50.928Z,0
2022-09-12T02:14:50.913Z,0
2022-09-12T02:15:50.905Z,0
2022-09-12T02:16:50.896Z,0
2022-09-12T02:17:50.883Z,0
2022-09-12T02:18:50.882Z,0
2022-09-12T02:19:50.898Z,0
2022-09-12T02:20:50.852Z,0
2022-09-12T02:21:50.843Z,0
2022-09-12T02:22:50.833Z,0
2022-09-12T02:23:50.821Z,0
2022-09-12T02:24:50.813Z,0
2022-09-12T02:25:50.806Z,0
2022-09-12T02:26:50.813Z,0
2022-09-12T02:27:50.812Z,0
2022-09-12T02:28:50.772Z,0
2022-09-12T02:29:50.764Z,0
2022-09-12T02:30:50.759Z,0
2022-09-12T02:31:50.744Z,0
2022-09-12T02:32:50.731Z,0
2022-09-12T02:33:50.716Z,0
2022-09-12T02:34:50.708Z,0
2022-09-12T02:35:50.701Z,0
2022-09-12T02:36:50.710Z,0
2022-09-12T02:37:50.708Z,0
2022-09-12T02:38:50.667Z,0
2022-09-12T02:39:50.661Z,0
2022-09-12T02:40:50.655Z,0
2022-09-12T02:41:50.651Z,0
2022-09-12T02:42:50.629Z,0
2022-09-12T02:43:50.632Z,0
2022-09-12T02:44:50.624Z,0
2022-09-12T02:45:50.613Z,0
2022-09-12T02:46:50.591Z,0
2022-09-12T02:47:50.586Z,0
2022-09-12T02:48:50.590Z,0
2022-09-12T02:49:50.575Z,0
2022-09-12T02:50:50.577Z,0
2022-09-12T02:51:50.537Z,0
2022-09-12T02:52:50.523Z,0
2022-09-12T02:53:50.513Z,0
2022-09-12T02:54:50.501Z,0
2022-09-12T02:55:50.492Z,0
2022-09-12T02:56:50.525Z,0
2022-09-12T02:57:50.494Z,0
2022-09-12T02:58:50.459Z,0
2022-09-12T02:59:50.455Z,0
2022-09-12T03:00:50.439Z,0
2022-09-12T03:01:50.453Z,0
2022-09-12T03:02:50.424Z,0
2022-09-12T03:03:50.423Z,0
2022-09-12T03:04:50.405Z,0
2022-09-12T03:05:50.392Z,0
2022-09-12T03:06:50.379Z,0
2022-09-12T03:07:50.387Z,0
2022-09-12T03:08:50.413Z,0
2022-09-12T03:09:50.349Z,0
2022-09-12T03:10:50.342Z,0
2022-09-12T03:11:50.331Z,0
2022-09-12T03:12:50.327Z,0
2022-09-12T03:13:50.301Z,0
2022-09-12T03:14:50.298Z,0
2022-09-12T03:15:50.289Z,0
2022-09-12T03:16:50.273Z,0
2022-09-12T03:17:50.269Z,0
2022-09-12T03:18:50.293Z,0
2022-09-12T03:19:50.261Z,0
2022-09-12T03:20:50.247Z,0
2022-09-12T03:21:50.221Z,0
2022-09-12T03:22:50.212Z,0
2022-09-12T03:23:50.225Z,0
2022-09-12T03:24:50.197Z,0
2022-09-12T03:25:50.209Z,0
2022-09-12T03:26:50.180Z,0
2022-09-12T03:27:50.184Z,0
2022-09-12T03:28:50.147Z,0
2022-09-12T03:29:50.138Z,0
2022-09-12T03:30:50.129Z,0
2022-09-12T03:31:50.114Z,0
2022-09-12T03:32:50.157Z,0
2022-09-12T03:33:50.099Z,0
2022-09-12T03:34:50.086Z,0
2022-09-12T03:35:50.076Z,0
2022-09-12T03:36:50.068Z,0
2022-09-12T03:37:50.065Z,0
2022-09-12T03:38:50.047Z,0
2022-09-12T03:39:50.038Z,0
2022-09-12T03:40:50.022Z,0
2022-09-12T03:41:50.016Z,0
2022-09-12T03:42:50.019Z,0
2022-09-12T03:43:49.995Z,0
2022-09-12T03:44:49.990Z,0
2022-09-12T03:45:49.987Z,0
2022-09-12T03:46:49.966Z,0
2022-09-12T03:47:49.950Z,0
2022-09-12T03:48:49.952Z,0
2022-09-12T03:49:49.930Z,0
2022-09-12T03:50:49.919Z,0
2022-09-12T03:51:49.904Z,0
2022-09-12T03:52:49.902Z,0
2022-09-12T03:53:49.895Z,0
2022-09-12T03:54:49.877Z,0
2022-09-12T03:55:49.861Z,0
2022-09-12T03:56:49.853Z,0
2022-09-12T03:57:49.866Z,0
2022-09-12T03:58:49.884Z,0
2022-09-12T03:59:49.884Z,0
2022-09-12T04:00:49.823Z,0
2022-09-12T04:01:49.848Z,0
2022-09-12T04:02:49.813Z,0
2022-09-12T04:03:49.779Z,0
2022-09-12T04:04:49.770Z,0
2022-09-12T04:05:49.771Z,0
2022-09-12T04:06:49.763Z,0
2022-09-12T04:07:49.735Z,0
2022-09-12T04:08:49.722Z,0
2022-09-12T04:09:49.710Z,0
2022-09-12T04:10:49.704Z,0
2022-09-12T04:11:49.701Z,0
2022-09-12T04:12:49.688Z,0
2022-09-12T04:13:49.675Z,0
2022-09-12T04:14:49.662Z,0
2022-09-12T04:15:49.652Z,0
2022-09-12T04:16:49.642Z,0
2022-09-12T04:17:49.628Z,0
2022-09-12T04:18:49.617Z,0
2022-09-12T04:19:49.615Z,0
2022-09-12T04:20:49.605Z,0
2022-09-12T04:21:49.585Z,0
2022-09-12T04:22:49.582Z,0
2022-09-12T04:23:49.573Z,0
2022-09-12T04:24:49.557Z,0
2022-09-12T04:25:49.546Z,0
2022-09-12T04:26:49.539Z,0
2022-09-12T04:27:49.547Z,0
2022-09-12T04:28:49.531Z,0
2022-09-12T04:29:49.509Z,0
2022-09-12T04:30:49.491Z,0
2022-09-12T04:31:49.482Z,0
2022-09-12T04:32:49.479Z,0
2022-09-12T04:33:49.469Z,0
2022-09-12T04:34:49.464Z,0
2022-09-12T04:35:49.460Z,0
2022-09-12T04:36:49.434Z,0
2022-09-12T04:37:49.447Z,0
2022-09-12T04:38:49.411Z,0
2022-09-12T04:39:49.411Z,0
2022-09-12T04:40:49.390Z,0
2022-09-12T04:41:49.390Z,0
2022-09-12T04:42:49.370Z,0
2022-09-12T04:43:49.364Z,0
2022-09-12T04:44:49.356Z,0
2022-09-12T04:45:49.343Z,0
2022-09-12T04:46:49.329Z,0
2022-09-12T04:47:49.327Z,0
2022-09-12T04:48:49.304Z,0
2022-09-12T04:49:49.300Z,0
2022-09-12T04:50:49.286Z,0
2022-09-12T04:51:49.291Z,0
2022-09-12T04:52:49.260Z,0
2022-09-12T04:53:49.249Z,0
2022-09-12T04:54:49.243Z,0
2022-09-12T04:55:49.230Z,0
2022-09-12T04:56:49.223Z,0
2022-09-12T04:57:49.222Z,0
2022-09-12T04:58:49.200Z,0
2022-09-12T04:59:49.188Z,5.62
2022-09-12T05:00:49.176Z,5.62
2022-09-12T05:01:49.166Z,5.62
2022-09-12T05:02:49.155Z,5.62
2022-09-12T05:03:49.151Z,5.62
2022-09-12T05:04:49.146Z,5.62
2022-09-12T05:05:49.123Z,5.62
2022-09-12T05:06:49.112Z,5.62
2022-09-12T05:07:49.100Z,5.62
2022-09-12T05:08:49.094Z,5.62
2022-09-12T05:09:49.098Z,11.25
2022-09-12T05:10:49.076Z,11.25
2022-09-12T05:11:49.055Z,11.25
2022-09-12T05:12:49.050Z,11.25
2022-09-12T05:13:49.051Z,11.25
2022-09-12T05:14:49.048Z,11.25
2022-09-12T05:15:49.021Z,11.25
2022-09-12T05:16:49.076Z,11.25
2022-09-12T05:17:49.004Z,11.25
2022-09-12T05:18:48.990Z,11.25
2022-09-12T05:19:48.992Z,16.88
2022-09-12T05:20:48.983Z,16.88
2022-09-12T05:21:48.951Z,16.88
2022-09-12T05:22:48.938Z,16.88
2022-09-12T05:23:48.941Z,16.88
2022-09-12T05:24:48.920Z,16.88
2022-09-12T05:25:48.906Z,16.88
2022-09-12T05:26:48.897Z,22.5
2022-09-12T05:27:48.892Z,22.5
2022-09-12T05:28:48.883Z,22.5
2022-09-12T05:29:48.870Z,22.5
2022-09-12T05:30:48.853Z,22.5
2022-09-12T05:31:48.848Z,22.5
2022-09-12T05:32:48.830Z,22.5
2022-09-12T05:33:48.830Z,28.12
2022-09-12T05:34:48.811Z,28.12
2022-09-12T05:35:48.810Z,28.12
2022-09-12T05:36:48.791Z,28.12
2022-09-12T05:37:48.780Z,28.12
2022-09-12T05:38:48.772Z,33.75
2022-09-12T05:39:48.759Z,33.75
2022-09-12T05:40:48.750Z,33.75
2022-09-12T05:41:48.751Z,33.75
2022-09-12T05:42:48.729Z,33.75
2022-09-12T05:43:48.730Z,33.75
2022-09-12T05:44:48.705Z,39.38
2022-09-12T05:45:48.703Z,39.38
2022-09-12T05:46:48.683Z,39.38
2022-09-12T05:47:48.682Z,39.38
2022-09-12T05:48:48.738Z,39.38
2022-09-12T05:49:48.655Z,39.38
2022-09-12T05:50:48.663Z,39.38
2022-09-12T05:51:48.649Z,39.38
2022-09-12T05:52:48.616Z,45
2022-09-12T05:53:48.607Z,45
2022-09-12T05:54:48.600Z,45
2022-09-12T05:55:48.590Z,45
2022-09-12T05:56:48.608Z,45
2022-09-12T05:57:48.582Z,45
2022-09-12T05:58:48.556Z,45
2022-09-12T05:59:48.552Z,50.62
2022-09-12T06:00:48.538Z,50.62
2022-09-12T06:01:48.537Z,50.62
2022-09-12T06:02:48.515Z,50.62
2022-09-12T06:03:48.517Z,50.62
2022-09-12T06:04:48.502Z,56.25
2022-09-12T06:05:48.486Z,56.25
2022-09-12T06:06:48.500Z,56.25
2022-09-12T06:07:48.469Z,56.25
2022-09-12T06:08:48.454Z,56.25
2022-09-12T06:09:48.439Z,61.88
2022-09-12T06:10:48.437Z,61.88
2022-09-12T06:11:48.422Z,61.88
2022-09-12T06:12:48.413Z,61.88
2022-09-12T06:13:48.400Z,67.5
2022-09-12T06:14:48.393Z,61.88
2022-09-12T06:15:48.396Z,67.5
2022-09-12T06:16:48.371Z,67.5
2022-09-12T06:17:48.367Z,73.12
2022-09-12T06:18:48.371Z,73.12
2022-09-12T06:19:48.372Z,73.12
2022-09-12T06:20:48.333Z,73.12
2022-09-12T06:21:48.322Z,78.75
2022-09-12T06:22:48.309Z,78.75
2022-09-12T06:23:48.298Z,73.12
2022-09-12T06:24:48.295Z,73.12
2022-09-12T06:25:48.278Z,78.75
2022-09-12T06:26:48.265Z,78.75
2022-09-12T06:27:48.258Z,84.38
2022-09-12T06:28:48.246Z,84.38
2022-09-12T06:29:48.236Z,84.38
2022-09-12T06:30:48.227Z,84.38
2022-09-12T06:31:48.223Z,90
2022-09-12T06:32:48.209Z,90
2022-09-12T06:33:48.198Z,90
2022-09-12T06:34:48.182Z,95.62
2022-09-12T06:35:48.180Z,95.62
2022-09-12T06:36:48.173Z,95.62
2022-09-12T06:37:48.149Z,101.25
2022-09-12T06:38:48.148Z,101.25
2022-09-12T06:39:48.132Z,101.25
2022-09-12T06:40:48.124Z,101.25
2022-09-12T06:41:48.116Z,101.25
2022-09-12T06:42:48.102Z,101.25
2022-09-12T06:43:48.088Z,106.88
2022-09-12T06:44:48.079Z,106.88
2022-09-12T06:45:48.074Z,106.88
2022-09-12T06:46:48.051Z,106.88
2022-09-12T06:47:48.048Z,106.88
2022-09-12T06:48:48.034Z,106.88
2022-09-12T06:49:48.024Z,106.88
2022-09-12T06:50:48.054Z,106.88
2022-09-12T06:51:47.999Z,106.88
2022-09-12T06:52:47.990Z,112.5
2022-09-12T06:53:48.002Z,112.5
2022-09-12T06:54:47.968Z,101.25
2022-09-12T06:55:47.960Z,101.25
2022-09-12T06:56:47.956Z,112.5
2022-09-12T06:57:47.941Z,123.75
2022-09-12T06:58:47.925Z,118.12
2022-09-12T06:59:47.914Z,118.12
2022-09-12T07:00:47.900Z,118.12
2022-09-12T07:01:47.894Z,118.12
2022-09-12T07:02:47.882Z,129.38
2022-09-12T07:03:47.882Z,129.38
2022-09-12T07:04:47.890Z,129.38
2022-09-12T07:05:47.846Z,129.38
2022-09-12T07:06:47.838Z,129.38
2022-09-12T07:07:47.833Z,129.38
2022-09-12T07:08:47.815Z,135
2022-09-12T07:09:47.823Z,140.62
2022-09-12T07:10:47.805Z,140.62
2022-09-12T07:11:47.801Z,146.25
2022-09-12T07:12:47.782Z,151.88
2022-09-12T07:13:47.771Z,151.88
2022-09-12T07:14:47.756Z,151.88
2022-09-12T07:15:47.752Z,151.88
2022-09-12T07:16:47.733Z,146.25
2022-09-12T07:17:47.722Z,140.62
2022-09-12T07:18:47.764Z,146.25
2022-09-12T07:19:47.724Z,168.75
2022-09-12T07:20:47.692Z,174.38
2022-09-12T07:21:47.690Z,174.38
2022-09-12T07:22:47.678Z,174.38
2022-09-12T07:23:47.657Z,174.38
2022-09-12T07:24:47.650Z,168.75
2022-09-12T07:25:47.641Z,168.75
2022-09-12T07:26:47.627Z,174.38
2022-09-12T07:27:47.627Z,180
2022-09-12T07:28:47.633Z,180
2022-09-12T07:29:47.614Z,185.62
2022-09-12T07:30:47.587Z,191.25
2022-09-12T07:31:47.574Z,202.5
2022-09-12T07:32:47.560Z,225
2022-09-12T07:33:47.550Z,219.38
2022-09-12T07:34:47.574Z,230.62
2022-09-12T07:35:47.532Z,236.25
2022-09-12T07:36:47.517Z,236.25
2022-09-12T07:37:47.508Z,236.25
2022-09-12T07:38:47.501Z,236.25
2022-09-12T07:39:47.490Z,241.88
2022-09-12T07:40:47.484Z,247.5
2022-09-12T07:41:47.468Z,253.12
2022-09-12T07:42:47.459Z,258.75
2022-09-12T07:43:47.444Z,258.75
2022-09-12T07:44:47.447Z,258.75
2022-09-12T07:45:47.432Z,270
2022-09-12T07:46:47.440Z,281.25
2022-09-12T07:47:47.416Z,286.88
2022-09-12T07:48:47.406Z,281.25
2022-09-12T07:49:47.382Z,286.88
2022-09-12T07:50:47.375Z,292.5
2022-09-12T07:51:47.368Z,309.38
2022-09-12T07:52:47.352Z,315
2022-09-12T07:53:47.344Z,309.38
2022-09-12T07:54:47.352Z,320.62
2022-09-12T07:55:47.327Z,343.12
2022-09-12T07:56:47.311Z,371.25
2022-09-12T07:57:47.324Z,472.5
2022-09-12T07:58:47.287Z,596.25
2022-09-12T23:58:18.067Z,0
2022-09-12T23:59:18.000Z,0
